Time;durP1;ratioP1;P1;durP2;ratioP2;P2;SDS_P1;SDS_P2;PMS_P1;PMS_P2;Temp;Humidity;BMP_temperature;BMP_pressure;BME280_temperature;BME280_humidity;BME280_pressure;Samples;Min_cycle;Max_cycle;Signal;HPM_P1;HPM_P2
2023/04/18 00:02:27;;;;;;;24.92;16.67;;;9.80;99.90;;;;;;5030776;28;20290;-76
2023/04/18 00:05:17;;;;;;;24.83;17.45;;;9.90;99.90;;;;;;5034250;28;20652;-75
2023/04/18 00:08:09;;;;;;;26.80;18.00;;;10.00;99.90;;;;;;5037271;28;20233;-75
2023/04/18 00:10:58;;;;;;;28.23;17.23;;;9.90;99.90;;;;;;5030977;28;20227;-77
2023/04/18 00:13:47;;;;;;;23.67;15.88;;;9.80;99.90;;;;;;5041824;28;20672;-76
2023/04/18 00:20:19;;;;;;;22.90;15.82;;;9.90;99.90;;;;;;5031344;28;20226;-75
2023/04/18 00:23:12;;;;;;;23.23;16.00;;;9.90;99.90;;;;;;5031223;28;20751;-77
2023/04/18 00:26:02;;;;;;;24.20;15.52;;;9.80;99.90;;;;;;5039326;28;20252;-79
2023/04/18 00:28:51;;;;;;;22.20;15.60;;;9.80;99.90;;;;;;5044371;28;20369;-77
2023/04/18 00:31:40;;;;;;;25.35;15.90;;;9.80;99.90;;;;;;5047067;28;20670;-79
2023/04/18 00:34:29;;;;;;;21.73;14.35;;;9.90;99.90;;;;;;5047475;28;20294;-79
2023/04/18 00:37:18;;;;;;;22.33;15.40;;;9.90;99.90;;;;;;5044038;28;20237;-78
2023/04/18 00:40:09;;;;;;;23.80;15.32;;;9.80;99.90;;;;;;5018467;28;20230;-76
2023/04/18 00:42:59;;;;;;;27.90;16.30;;;9.80;99.90;;;;;;5051198;28;20233;-76
2023/04/18 00:45:48;;;;;;;21.90;14.82;;;9.70;99.90;;;;;;5043048;28;20225;-75
2023/04/18 00:48:39;;;;;;;23.92;15.70;;;9.60;99.90;;;;;;5043108;28;20233;-76
2023/04/18 00:51:28;;;;;;;23.00;16.05;;;9.70;99.90;;;;;;5046007;28;20221;-76
2023/04/18 00:54:18;;;;;;;20.52;14.90;;;9.70;99.90;;;;;;5042310;28;20332;-77
2023/04/18 00:57:09;;;;;;;22.67;14.90;;;9.80;99.90;;;;;;5041813;28;20698;-80
2023/04/18 01:00:03;;;;;;;21.70;15.30;;;9.80;99.90;;;;;;5028091;28;20240;-81
2023/04/18 01:02:54;;;;;;;19.10;14.25;;;9.70;99.90;;;;;;5026333;28;20229;-76
2023/04/18 01:05:43;;;;;;;20.65;15.32;;;9.80;99.90;;;;;;5033733;28;20229;-77
2023/04/18 01:08:36;;;;;;;23.73;15.02;;;9.80;99.90;;;;;;5032346;28;20251;-79
2023/04/18 01:11:25;;;;;;;19.88;14.25;;;9.70;99.90;;;;;;5020568;28;20217;-78
2023/04/18 01:14:15;;;;;;;21.27;14.65;;;9.80;99.90;;;;;;5048422;28;20603;-78
2023/04/18 01:17:04;;;;;;;23.23;15.70;;;9.70;99.90;;;;;;5032965;28;20217;-78
2023/04/18 01:19:53;;;;;;;23.13;15.45;;;9.80;99.90;;;;;;5032733;28;20233;-80
2023/04/18 01:23:15;;;;;;;20.02;15.10;;;9.60;99.90;;;;;;4995233;28;20704;-79
2023/04/18 01:26:05;;;;;;;21.10;15.48;;;9.70;99.90;;;;;;5027402;28;20237;-78
2023/04/18 01:28:54;;;;;;;21.45;14.88;;;9.60;99.90;;;;;;5012272;28;20581;-78
2023/04/18 01:31:43;;;;;;;21.17;15.07;;;9.70;99.90;;;;;;5043293;28;20240;-79
2023/04/18 01:34:36;;;;;;;25.00;16.15;;;9.70;99.90;;;;;;5036249;28;20271;-78
2023/04/18 01:37:26;;;;;;;21.02;15.50;;;9.70;99.90;;;;;;5026469;28;20218;-75
2023/04/18 01:40:15;;;;;;;22.60;15.30;;;9.80;99.90;;;;;;5019221;28;20226;-76
2023/04/18 01:43:05;;;;;;;21.20;14.95;;;9.80;99.90;;;;;;5053552;28;20221;-76
2023/04/18 01:45:54;;;;;;;23.50;16.38;;;9.90;99.90;;;;;;5039976;28;20226;-74
2023/04/18 01:48:43;;;;;;;22.38;15.30;;;9.80;99.90;;;;;;5051921;28;20256;-76
2023/04/18 01:51:32;;;;;;;24.00;15.73;;;9.80;99.90;;;;;;5035605;28;20268;-75
2023/04/18 01:54:21;;;;;;;22.85;16.52;;;9.80;99.90;;;;;;5035071;28;20577;-75
2023/04/18 01:57:13;;;;;;;23.13;15.93;;;9.80;99.90;;;;;;5047125;28;20234;-76
2023/04/18 02:00:03;;;;;;;21.20;15.60;;;9.90;99.90;;;;;;5030175;28;20229;-76
2023/04/18 02:03:01;;;;;;;21.05;15.73;;;10.00;99.90;;;;;;5039731;28;20303;-77
2023/04/18 02:05:51;;;;;;;22.20;16.10;;;10.10;99.90;;;;;;5004796;28;20660;-77
2023/04/18 02:08:40;;;;;;;23.60;17.25;;;9.90;99.90;;;;;;5047401;28;20296;-77
2023/04/18 02:11:30;;;;;;;21.77;16.02;;;10.00;99.90;;;;;;5039088;28;20279;-74
2023/04/18 02:14:18;;;;;;;25.13;16.00;;;9.90;99.90;;;;;;5039079;28;20267;-74
2023/04/18 02:17:09;;;;;;;22.15;16.58;;;9.90;99.90;;;;;;5047692;28;20372;-75
2023/04/18 02:19:57;;;;;;;23.27;16.73;;;10.00;99.90;;;;;;5020124;28;20230;-75
2023/04/18 02:22:47;;;;;;;27.73;17.27;;;10.00;99.90;;;;;;5041005;28;20221;-75
2023/04/18 02:25:36;;;;;;;25.10;16.35;;;9.90;99.90;;;;;;5027295;28;20225;-75
2023/04/18 02:28:25;;;;;;;26.88;17.42;;;9.80;99.90;;;;;;5036833;28;20329;-78
2023/04/18 02:31:15;;;;;;;24.67;17.42;;;9.80;99.90;;;;;;5040214;28;20236;-79
2023/04/18 02:34:06;;;;;;;25.30;16.83;;;9.80;99.90;;;;;;5044017;28;20672;-79
2023/04/18 02:36:55;;;;;;;23.23;16.80;;;9.80;99.90;;;;;;5040168;28;20585;-79
2023/04/18 02:39:44;;;;;;;21.45;16.50;;;9.80;99.90;;;;;;5037876;28;20685;-78
2023/04/18 02:42:33;;;;;;;25.25;17.73;;;9.90;99.90;;;;;;5045220;28;20225;-77
2023/04/18 02:45:22;;;;;;;25.90;17.45;;;9.90;99.90;;;;;;5025865;28;20262;-81
2023/04/18 02:48:11;;;;;;;26.10;17.80;;;9.80;99.90;;;;;;5028381;28;20853;-82
2023/04/18 02:51:03;;;;;;;27.42;17.70;;;9.70;99.90;;;;;;5005778;28;20306;-81
2023/04/18 02:53:55;;;;;;;25.30;17.70;;;9.80;99.90;;;;;;5017610;28;20237;-82
2023/04/18 02:56:45;;;;;;;27.58;18.45;;;9.70;99.90;;;;;;5030842;28;20696;-82
2023/04/18 02:59:40;;;;;;;30.98;20.35;;;9.60;99.90;;;;;;5023032;28;20221;-80
2023/04/18 03:02:49;;;;;;;29.17;19.27;;;9.60;99.90;;;;;;5028320;28;20236;-79
2023/04/18 03:06:00;;;;;;;29.50;20.63;;;9.60;99.90;;;;;;5039580;28;20228;-79
2023/04/18 03:08:52;;;;;;;25.95;19.77;;;9.60;99.90;;;;;;5022367;28;20229;-76
2023/04/18 03:11:41;;;;;;;29.25;20.20;;;9.60;99.90;;;;;;5012045;28;20709;-76
2023/04/18 03:14:30;;;;;;;30.05;20.83;;;9.60;99.90;;;;;;5021617;28;20857;-76
2023/04/18 03:17:20;;;;;;;31.73;20.45;;;9.70;99.90;;;;;;5011592;28;20222;-76
2023/04/18 03:20:11;;;;;;;24.35;17.88;;;9.60;99.90;;;;;;5025544;28;20245;-77
2023/04/18 03:22:59;;;;;;;29.90;20.55;;;9.70;99.90;;;;;;5034761;28;20217;-76
2023/04/18 03:25:52;;;;;;;25.83;20.10;;;9.50;99.90;;;;;;5009967;28;20295;-75
2023/04/18 03:28:42;;;;;;;28.23;20.30;;;9.50;99.90;;;;;;5031530;28;20224;-75
2023/04/18 03:31:32;;;;;;;29.45;20.60;;;9.60;99.90;;;;;;5014065;28;20237;-76
2023/04/18 03:34:21;;;;;;;27.17;20.70;;;9.60;99.90;;;;;;5039540;28;20820;-76
2023/04/18 03:37:10;;;;;;;26.55;19.73;;;9.70;99.90;;;;;;5039140;28;20260;-76
2023/04/18 03:40:05;;;;;;;26.63;19.67;;;9.80;99.90;;;;;;5039333;28;20225;-76
2023/04/18 03:42:55;;;;;;;26.77;18.90;;;9.70;99.90;;;;;;5025629;28;20305;-74
2023/04/18 03:45:46;;;;;;;23.13;17.98;;;9.70;99.90;;;;;;5047936;28;20248;-74
2023/04/18 03:48:37;;;;;;;29.02;19.23;;;9.70;99.90;;;;;;5039165;28;20308;-74
2023/04/18 03:51:33;;;;;;;26.15;18.85;;;9.80;99.90;;;;;;5033418;28;20220;-74
2023/04/18 03:54:22;;;;;;;26.65;17.98;;;10.00;99.90;;;;;;5041258;28;20232;-74
2023/04/18 03:57:11;;;;;;;25.05;18.65;;;10.00;99.90;;;;;;5051286;28;20220;-73
2023/04/18 04:00:01;;;;;;;27.08;19.27;;;9.70;99.90;;;;;;5035956;28;20248;-72
2023/04/18 04:03:02;;;;;;;27.20;19.30;;;9.70;99.90;;;;;;5025448;28;20782;-72
2023/04/18 04:05:52;;;;;;;24.63;18.58;;;9.80;99.90;;;;;;5013226;28;20222;-75
2023/04/18 04:08:41;;;;;;;27.50;19.17;;;9.80;99.90;;;;;;5006548;28;20400;-77
2023/04/18 04:11:31;;;;;;;28.27;18.83;;;9.80;99.90;;;;;;5023618;28;20640;-77
2023/04/18 04:14:20;;;;;;;25.73;18.77;;;9.70;99.90;;;;;;5038376;28;20330;-77
2023/04/18 04:17:10;;;;;;;25.65;18.17;;;9.70;99.90;;;;;;5007512;28;20226;-77
2023/04/18 04:20:00;;;;;;;22.88;17.70;;;9.70;99.90;;;;;;5010737;28;20230;-76
2023/04/18 04:22:54;;;;;;;24.42;17.67;;;9.90;99.90;;;;;;5010476;28;20233;-77
2023/04/18 04:25:44;;;;;;;26.13;18.48;;;9.90;99.90;;;;;;5024979;28;20229;-77
2023/04/18 04:28:52;;;;;;;25.83;18.15;;;9.90;99.90;;;;;;5033948;28;20367;-75
2023/04/18 04:31:44;;;;;;;25.95;18.85;;;9.70;99.90;;;;;;5026789;28;20395;-75
2023/04/18 04:34:40;;;;;;;23.75;17.63;;;9.70;99.90;;;;;;5023895;28;20217;-75
2023/04/18 04:37:32;;;;;;;26.70;18.73;;;9.70;99.90;;;;;;5027986;28;20216;-76
2023/04/18 04:40:32;;;;;;;24.83;17.77;;;9.80;99.90;;;;;;5048876;28;20239;-75
2023/04/18 04:43:29;;;;;;;27.80;18.25;;;9.80;99.90;;;;;;5039740;28;20292;-75
2023/04/18 04:46:19;;;;;;;26.08;19.45;;;9.80;99.90;;;;;;5039348;28;20744;-78
2023/04/18 04:49:10;;;;;;;27.13;18.85;;;9.80;99.90;;;;;;5024980;28;20255;-78
2023/04/18 04:52:01;;;;;;;24.70;18.38;;;9.80;99.90;;;;;;5019767;28;20299;-77
2023/04/18 04:54:51;;;;;;;28.58;19.17;;;9.80;99.90;;;;;;5029398;28;20230;-75
2023/04/18 04:57:43;;;;;;;27.23;18.15;;;9.80;99.90;;;;;;5006878;28;20230;-75
2023/04/18 05:00:51;;;;;;;27.60;18.48;;;9.80;99.90;;;;;;5010234;28;20231;-77
2023/04/18 05:03:41;;;;;;;23.10;18.15;;;9.90;99.90;;;;;;5016727;28;20222;-76
2023/04/18 05:06:30;;;;;;;27.55;19.67;;;9.80;99.90;;;;;;5032592;28;20223;-76
2023/04/18 05:09:20;;;;;;;26.58;18.27;;;9.90;99.90;;;;;;5024004;28;20239;-77
2023/04/18 05:12:09;;;;;;;25.83;19.02;;;9.90;99.90;;;;;;5035155;28;20317;-77
2023/04/18 05:14:58;;;;;;;25.45;17.98;;;9.90;99.90;;;;;;5043495;28;20316;-77
2023/04/18 05:17:47;;;;;;;26.75;18.63;;;10.00;99.90;;;;;;5042398;28;20603;-75
2023/04/18 05:20:35;;;;;;;25.55;17.80;;;10.10;99.90;;;;;;5048103;28;20278;-79
2023/04/18 05:23:24;;;;;;;27.67;18.83;;;10.30;99.90;;;;;;5042903;28;20228;-80
2023/04/18 05:26:14;;;;;;;24.55;17.80;;;10.30;99.90;;;;;;5028034;28;20634;-79
2023/04/18 05:29:03;;;;;;;24.13;17.45;;;10.40;99.90;;;;;;5035737;28;20264;-78
2023/04/18 05:31:52;;;;;;;26.30;18.15;;;10.40;99.90;;;;;;5043772;28;20284;-80
2023/04/18 05:34:41;;;;;;;25.63;18.38;;;10.20;99.90;;;;;;5044794;28;20260;-76
2023/04/18 05:37:31;;;;;;;24.85;18.65;;;10.30;99.90;;;;;;5010865;28;20257;-79
2023/04/18 05:40:20;;;;;;;27.55;18.80;;;10.40;99.90;;;;;;5015255;28;20448;-81
2023/04/18 05:43:10;;;;;;;27.15;18.90;;;10.50;99.90;;;;;;5018082;28;20226;-77
2023/04/18 05:45:59;;;;;;;24.73;18.17;;;10.40;99.90;;;;;;5026514;28;20308;-77
2023/04/18 05:48:48;;;;;;;25.92;18.05;;;10.30;99.90;;;;;;5037284;28;20213;-76
2023/04/18 05:51:36;;;;;;;23.90;17.70;;;10.40;99.90;;;;;;5037106;28;20615;-76
2023/04/18 05:54:26;;;;;;;26.98;18.15;;;10.50;99.90;;;;;;5024631;28;20224;-75
2023/04/18 05:57:15;;;;;;;26.33;18.40;;;10.70;99.90;;;;;;5032245;28;20244;-76
2023/04/18 06:00:08;;;;;;;25.20;18.25;;;10.60;99.90;;;;;;5034138;28;20710;-78
2023/04/18 06:03:00;;;;;;;25.27;18.48;;;10.60;99.90;;;;;;5022236;28;20229;-77
2023/04/18 06:05:49;;;;;;;26.60;18.08;;;10.80;99.90;;;;;;5028931;28;20229;-79
2023/04/18 06:08:38;;;;;;;26.80;18.33;;;10.80;99.90;;;;;;5031693;28;20232;-81
2023/04/18 06:11:27;;;;;;;23.83;17.73;;;10.80;99.90;;;;;;5026053;28;20360;-78
2023/04/18 06:14:16;;;;;;;27.42;18.95;;;10.80;99.90;;;;;;5026829;28;20261;-80
2023/04/18 06:17:11;;;;;;;25.83;18.27;;;10.80;99.90;;;;;;5035639;28;20722;-79
2023/04/18 06:20:00;;;;;;;28.08;18.25;;;10.90;99.90;;;;;;5037256;28;20221;-78
2023/04/18 06:22:49;;;;;;;28.13;18.40;;;10.90;99.90;;;;;;5031941;28;20349;-78
2023/04/18 06:25:37;;;;;;;25.60;17.67;;;10.80;99.90;;;;;;5031697;28;20237;-76
2023/04/18 06:28:26;;;;;;;25.48;18.00;;;10.80;99.90;;;;;;5041741;28;20597;-78
2023/04/18 06:31:15;;;;;;;25.98;17.77;;;10.80;99.90;;;;;;5030676;28;20753;-79
2023/04/18 06:34:07;;;;;;;29.52;18.42;;;10.60;99.90;;;;;;5038622;28;20217;-78
2023/04/18 06:36:55;;;;;;;26.45;17.60;;;10.70;99.90;;;;;;5034535;28;20238;-77
2023/04/18 06:39:44;;;;;;;22.63;17.30;;;10.90;99.90;;;;;;5022975;28;20225;-79
2023/04/18 06:42:33;;;;;;;24.75;16.73;;;10.90;99.90;;;;;;5028218;28;20228;-76
2023/04/18 06:45:22;;;;;;;22.52;16.00;;;11.00;99.90;;;;;;5017895;28;20221;-79
2023/04/18 06:48:11;;;;;;;27.05;18.20;;;11.00;99.90;;;;;;5023846;28;20319;-79
2023/04/18 06:51:04;;;;;;;23.05;16.85;;;11.10;99.90;;;;;;5020938;28;20363;-78
2023/04/18 06:53:54;;;;;;;23.33;17.80;;;11.10;99.90;;;;;;5028233;28;20224;-78
2023/04/18 06:56:43;;;;;;;27.70;17.73;;;11.30;99.90;;;;;;5021794;28;20311;-78
2023/04/18 06:59:34;;;;;;;27.10;17.48;;;11.20;99.90;;;;;;5017752;28;20245;-78
2023/04/18 07:02:23;;;;;;;23.17;17.38;;;11.10;99.90;;;;;;5031147;28;20225;-78
2023/04/18 07:05:12;;;;;;;24.25;16.88;;;11.30;99.90;;;;;;5026198;28;20229;-78
2023/04/18 07:08:05;;;;;;;24.73;17.45;;;11.30;99.90;;;;;;5039289;28;20232;-78
2023/04/18 07:10:54;;;;;;;25.65;17.25;;;11.30;99.90;;;;;;5039114;28;20285;-78
2023/04/18 07:13:44;;;;;;;24.35;17.25;;;11.40;99.90;;;;;;5025414;28;21065;-78
2023/04/18 07:16:33;;;;;;;28.13;17.55;;;11.30;99.90;;;;;;5015925;28;20248;-77
2023/04/18 07:19:22;;;;;;;25.15;17.55;;;11.30;99.90;;;;;;5017531;28;20241;-78
2023/04/18 07:22:11;;;;;;;23.77;17.30;;;11.20;99.90;;;;;;5026637;28;20245;-77
2023/04/18 07:25:01;;;;;;;28.45;17.77;;;11.30;99.90;;;;;;5045375;28;20608;-78
2023/04/18 07:27:50;;;;;;;24.83;17.27;;;11.40;99.90;;;;;;5035727;28;20554;-77
2023/04/18 07:30:39;;;;;;;23.83;16.15;;;11.50;99.90;;;;;;5041524;28;20304;-78
2023/04/18 07:33:30;;;;;;;21.98;16.63;;;11.60;99.90;;;;;;5033044;28;20221;-77
2023/04/18 07:36:20;;;;;;;25.20;16.80;;;11.80;99.90;;;;;;5040218;28;20305;-77
2023/04/18 07:39:09;;;;;;;27.13;16.90;;;11.70;99.90;;;;;;5018201;28;20302;-81
2023/04/18 07:41:59;;;;;;;23.92;17.10;;;11.60;99.90;;;;;;5037068;28;20648;-78
2023/04/18 07:44:49;;;;;;;23.33;15.60;;;12.00;99.90;;;;;;5029628;28;20225;-79
2023/04/18 07:47:38;;;;;;;26.30;17.67;;;12.00;99.90;;;;;;5031683;28;20226;-76
2023/04/18 07:50:27;;;;;;;24.85;17.25;;;12.20;99.90;;;;;;5044453;28;20221;-79
2023/04/18 07:53:16;;;;;;;24.85;16.38;;;12.20;99.90;;;;;;5038954;28;20231;-79
2023/04/18 07:56:05;;;;;;;26.70;18.02;;;12.20;99.90;;;;;;5005901;28;20240;-80
2023/04/18 07:58:55;;;;;;;24.48;16.98;;;12.40;99.90;;;;;;5031541;28;20228;-75
2023/04/18 08:01:44;;;;;;;25.23;16.52;;;12.80;99.90;;;;;;5010142;28;20334;-77
2023/04/18 08:04:33;;;;;;;23.05;16.30;;;13.10;99.90;;;;;;5024804;28;20298;-77
2023/04/18 08:07:22;;;;;;;23.98;16.42;;;13.10;99.90;;;;;;5024951;28;20273;-77
2023/04/18 08:10:11;;;;;;;28.27;17.65;;;13.50;99.90;;;;;;5021696;28;20241;-77
2023/04/18 08:13:00;;;;;;;21.48;16.25;;;13.60;99.90;;;;;;5022815;28;20224;-76
2023/04/18 08:15:50;;;;;;;23.00;17.05;;;13.80;99.90;;;;;;5023001;28;20232;-78
2023/04/18 08:18:39;;;;;;;23.63;16.50;;;13.60;99.90;;;;;;5022243;28;20301;-77
2023/04/18 08:21:28;;;;;;;23.17;17.00;;;13.70;99.90;;;;;;5020111;28;20221;-78
2023/04/18 08:24:17;;;;;;;24.63;17.00;;;13.60;99.90;;;;;;5023712;28;20706;-73
2023/04/18 08:27:07;;;;;;;22.75;16.08;;;13.70;99.90;;;;;;5018235;28;20815;-77
2023/04/18 08:29:56;;;;;;;23.23;16.33;;;14.70;99.90;;;;;;5021490;28;20680;-78
2023/04/18 08:32:48;;;;;;;22.15;14.77;;;15.10;99.90;;;;;;5042009;28;20243;-78
2023/04/18 08:35:37;;;;;;;19.83;15.73;;;15.40;99.90;;;;;;5025041;28;20229;-80
2023/04/18 08:38:26;;;;;;;23.10;15.27;;;15.60;99.90;;;;;;5034716;28;20294;-79
2023/04/18 08:41:19;;;;;;;23.80;15.32;;;15.50;99.90;;;;;;5033716;28;20526;-78
2023/04/18 08:44:08;;;;;;;26.02;16.60;;;15.60;99.90;;;;;;5038852;28;20338;-79
2023/04/18 08:47:00;;;;;;;20.80;16.33;;;15.30;99.90;;;;;;5032974;28;20884;-78
2023/04/18 08:49:52;;;;;;;20.45;14.95;;;15.40;99.90;;;;;;5047605;28;20226;-78
2023/04/18 08:52:46;;;;;;;21.25;15.00;;;15.60;99.90;;;;;;5047321;28;20693;-75
2023/04/18 08:55:35;;;;;;;21.33;14.98;;;16.00;99.90;;;;;;5041526;28;20248;-78
2023/04/18 08:58:26;;;;;;;21.70;15.25;;;15.80;99.90;;;;;;5030681;28;20301;-79
2023/04/18 09:01:16;;;;;;;18.23;14.55;;;16.30;99.90;;;;;;5043957;28;20420;-78
2023/04/18 09:04:06;;;;;;;21.92;14.38;;;16.20;99.90;;;;;;5025528;28;20307;-78
2023/04/18 09:06:57;;;;;;;17.38;13.63;;;17.40;99.90;;;;;;5030373;28;20748;-78
2023/04/18 09:09:48;;;;;;;16.15;12.70;;;16.70;99.90;;;;;;5043192;28;20916;-79
2023/04/18 09:12:43;;;;;;;16.85;13.00;;;16.60;99.90;;;;;;5040830;28;20266;-79
2023/04/18 09:15:33;;;;;;;17.95;13.45;;;17.70;99.90;;;;;;5030783;28;20357;-79
2023/04/18 09:18:23;;;;;;;20.25;12.50;;;17.10;99.90;;;;;;5049023;28;20223;-79
2023/04/18 09:21:18;;;;;;;20.15;13.23;;;17.40;99.90;;;;;;5040657;28;20236;-80
2023/04/18 09:24:22;;;;;;;20.67;13.18;;;16.90;99.90;;;;;;5026726;28;20228;-79
2023/04/18 09:27:13;;;;;;;16.48;13.13;;;17.10;99.90;;;;;;5036467;28;20252;-78
2023/04/18 09:30:02;;;;;;;17.50;13.20;;;17.30;99.90;;;;;;5032642;28;20256;-79
2023/04/18 09:32:58;;;;;;;15.55;12.45;;;16.80;99.90;;;;;;5031410;28;20264;-79
2023/04/18 09:35:47;;;;;;;16.60;12.88;;;16.80;99.90;;;;;;5026618;28;20668;-78
2023/04/18 09:38:40;;;;;;;21.23;12.23;;;17.20;99.90;;;;;;5020234;28;20213;-79
2023/04/18 09:41:31;;;;;;;18.55;12.63;;;17.30;99.90;;;;;;5028982;28;20229;-79
2023/04/18 09:44:20;;;;;;;16.80;11.65;;;17.30;99.90;;;;;;5043085;28;20225;-80
2023/04/18 09:47:09;;;;;;;16.10;11.98;;;17.10;99.90;;;;;;5040717;28;20706;-80
2023/04/18 09:49:58;;;;;;;17.75;11.82;;;17.20;99.90;;;;;;5031984;28;20537;-79
2023/04/18 09:52:48;;;;;;;14.93;11.57;;;17.60;99.90;;;;;;5037351;28;20240;-80
2023/04/18 09:55:41;;;;;;;16.08;11.57;;;17.50;99.90;;;;;;5028556;28;20275;-79
2023/04/18 09:58:34;;;;;;;16.08;10.68;;;17.50;99.90;;;;;;5039926;28;20246;-79
2023/04/18 10:01:27;;;;;;;14.02;11.07;;;17.80;99.90;;;;;;5023664;28;20234;-78
2023/04/18 10:04:18;;;;;;;16.70;11.60;;;18.40;99.90;;;;;;5045491;28;20238;-78
2023/04/18 10:07:07;;;;;;;19.95;11.30;;;18.60;99.90;;;;;;5044036;28;20313;-79
2023/04/18 10:09:56;;;;;;;13.40;11.23;;;17.70;99.90;;;;;;5037418;28;20224;-79
2023/04/18 10:12:46;;;;;;;16.02;11.40;;;17.50;99.90;;;;;;5044016;28;20279;-78
2023/04/18 10:15:38;;;;;;;15.35;10.63;;;18.30;99.90;;;;;;5035376;28;20221;-80
2023/04/18 10:18:28;;;;;;;12.68;9.52;;;18.00;99.90;;;;;;5038994;28;20236;-79
2023/04/18 10:21:17;;;;;;;12.50;9.60;;;17.30;99.90;;;;;;5036764;28;20218;-78
2023/04/18 10:24:07;;;;;;;12.75;9.77;;;17.20;99.90;;;;;;5032493;28;20323;-79
2023/04/18 10:26:57;;;;;;;14.48;9.70;;;17.30;99.90;;;;;;5048291;28;20237;-79
2023/04/18 10:29:50;;;;;;;14.18;10.18;;;17.60;99.90;;;;;;5035204;28;20294;-79
2023/04/18 10:32:41;;;;;;;10.95;9.00;;;17.40;99.90;;;;;;5034608;28;20352;-79
2023/04/18 10:35:29;;;;;;;11.13;8.80;;;17.00;99.90;;;;;;5047829;28;20688;-79
2023/04/18 10:38:22;;;;;;;12.77;8.95;;;17.10;99.90;;;;;;5033920;28;20229;-78
2023/04/18 10:41:20;;;;;;;12.60;8.55;;;18.10;99.90;;;;;;5027632;28;20830;-78
2023/04/18 10:44:29;;;;;;;13.95;8.95;;;18.60;99.90;;;;;;5033347;28;20217;-78
2023/04/18 10:47:22;;;;;;;11.35;8.23;;;18.50;99.90;;;;;;5036856;28;20735;-77
2023/04/18 10:50:13;;;;;;;11.43;7.70;;;18.50;99.90;;;;;;5024293;28;20950;-78
2023/04/18 10:53:02;;;;;;;9.73;7.82;;;18.40;99.90;;;;;;5040110;28;20376;-78
2023/04/18 10:55:55;;;;;;;9.63;8.27;;;18.00;99.90;;;;;;5015519;28;20233;-79
2023/04/18 10:58:50;;;;;;;15.82;9.90;;;17.60;99.90;;;;;;5043744;28;20231;-79
2023/04/18 11:01:43;;;;;;;11.38;9.13;;;18.50;99.90;;;;;;5035452;28;20694;-79
2023/04/18 11:04:32;;;;;;;13.82;9.50;;;18.30;99.90;;;;;;5033124;28;20358;-78
2023/04/18 11:07:32;;;;;;;13.52;9.20;;;18.50;99.90;;;;;;5035133;28;20229;-79
2023/04/18 11:10:23;;;;;;;14.77;8.63;;;18.10;99.90;;;;;;5031965;28;20233;-78
2023/04/18 11:13:12;;;;;;;11.85;9.55;;;18.50;99.90;;;;;;5019851;28;20220;-78
2023/04/18 11:16:01;;;;;;;11.70;10.35;;;18.90;99.90;;;;;;5039049;28;20838;-79
2023/04/18 11:18:50;;;;;;;13.63;10.50;;;18.70;99.90;;;;;;5011595;28;20619;-79
2023/04/18 11:21:39;;;;;;;16.92;10.68;;;20.00;99.90;;;;;;5018978;28;20229;-78
2023/04/18 11:24:29;;;;;;;13.27;10.85;;;20.30;99.90;;;;;;5016232;28;20236;-79
2023/04/18 11:27:18;;;;;;;15.23;11.15;;;19.30;99.90;;;;;;5020765;28;20732;-79
2023/04/18 11:30:08;;;;;;;14.68;11.70;;;18.20;99.90;;;;;;5022234;28;20302;-80
2023/04/18 11:32:57;;;;;;;14.93;10.85;;;18.00;99.90;;;;;;5028904;28;20229;-79
2023/04/18 11:35:46;;;;;;;16.38;11.07;;;17.90;99.90;;;;;;5024834;28;20225;-79
2023/04/18 11:38:37;;;;;;;14.02;11.55;;;17.30;99.90;;;;;;5039311;28;20722;-79
2023/04/18 11:41:27;;;;;;;14.38;11.35;;;16.90;99.90;;;;;;5038716;28;20233;-78
2023/04/18 11:44:16;;;;;;;17.05;12.23;;;16.90;99.90;;;;;;5036981;28;20216;-79
2023/04/18 11:47:21;;;;;;;17.90;12.15;;;16.50;99.90;;;;;;5033025;28;20597;-79
2023/04/18 11:50:12;;;;;;;16.05;11.88;;;16.20;99.90;;;;;;5033795;28;20232;-78
2023/04/18 11:53:00;;;;;;;13.63;11.57;;;16.10;99.90;;;;;;5013568;28;20573;-79
2023/04/18 11:55:55;;;;;;;16.30;12.40;;;16.00;99.90;;;;;;5031806;28;20665;-76
2023/04/18 11:58:45;;;;;;;18.00;12.15;;;16.00;99.90;;;;;;5029248;28;20272;-76
2023/04/18 12:01:34;;;;;;;15.57;11.60;;;16.00;99.90;;;;;;5017426;28;20308;-77
2023/04/18 12:04:23;;;;;;;17.15;12.20;;;16.00;99.90;;;;;;5036024;28;20231;-75
2023/04/18 12:07:12;;;;;;;15.27;12.30;;;16.00;99.90;;;;;;5035555;28;20229;-79
2023/04/18 12:10:01;;;;;;;17.65;11.93;;;16.20;99.90;;;;;;5026817;28;20242;-79
2023/04/18 12:12:50;;;;;;;15.70;11.57;;;16.20;99.90;;;;;;5036084;28;20227;-79
2023/04/18 12:15:43;;;;;;;17.05;11.63;;;16.00;99.90;;;;;;5019235;28;20242;-79
2023/04/18 12:18:33;;;;;;;15.02;10.90;;;16.10;99.90;;;;;;5023471;28;20232;-79
2023/04/18 12:21:25;;;;;;;13.35;11.23;;;16.00;99.90;;;;;;5024255;28;20641;-75
2023/04/18 12:24:15;;;;;;;18.45;11.93;;;16.00;99.90;;;;;;5042184;28;20217;-74
2023/04/18 12:27:04;;;;;;;16.98;11.52;;;16.10;99.90;;;;;;5031152;28;20939;-78
2023/04/18 12:30:09;;;;;;;18.13;10.70;;;16.50;99.90;;;;;;5036530;27;1289725;-70
2023/04/18 12:32:59;;;;;;;15.50;11.23;;;16.20;99.90;;;;;;5048432;28;20229;-71
2023/04/18 12:35:48;;;;;;;14.23;11.63;;;16.00;99.90;;;;;;5060878;28;20425;-70
2023/04/18 12:38:37;;;;;;;14.30;10.30;;;15.90;99.90;;;;;;5066854;28;20211;-71
2023/04/18 12:41:26;;;;;;;15.40;10.65;;;15.90;99.90;;;;;;5073043;28;20235;-73
2023/04/18 12:44:14;;;;;;;16.30;11.20;;;16.00;99.90;;;;;;5071783;28;20863;-72
2023/04/18 12:47:05;;;;;;;16.63;11.75;;;16.10;99.90;;;;;;5065980;28;20231;-71
2023/04/18 12:49:54;;;;;;;15.82;11.10;;;16.00;99.90;;;;;;5076119;28;20275;-70
2023/04/18 12:52:43;;;;;;;16.15;10.07;;;16.10;99.90;;;;;;5070830;28;21015;-72
2023/04/18 12:55:32;;;;;;;17.45;11.25;;;16.30;99.90;;;;;;5076922;28;20220;-71
2023/04/18 12:58:21;;;;;;;12.70;11.10;;;16.60;99.90;;;;;;5069306;28;20218;-71
2023/04/18 13:01:10;;;;;;;14.15;10.77;;;16.50;99.90;;;;;;5074708;28;20230;-71
2023/04/18 13:04:00;;;;;;;13.85;10.43;;;16.40;99.90;;;;;;5073650;28;20219;-72
2023/04/18 13:06:59;;;;;;;14.10;9.98;;;16.40;99.90;;;;;;5063231;28;20301;-72
2023/04/18 13:09:48;;;;;;;15.38;10.05;;;16.60;99.90;;;;;;5058551;28;20223;-70
2023/04/18 13:12:38;;;;;;;14.40;10.32;;;16.30;99.90;;;;;;5068436;28;20215;-70
2023/04/18 13:15:27;;;;;;;11.15;9.50;;;16.40;99.90;;;;;;5074960;28;20221;-72
2023/04/18 13:18:15;;;;;;;12.57;10.15;;;16.40;99.90;;;;;;5072270;28;20223;-70
2023/04/18 13:21:06;;;;;;;13.60;10.13;;;16.20;99.90;;;;;;5073804;28;20306;-70
2023/04/18 13:23:55;;;;;;;16.13;9.30;;;16.20;99.90;;;;;;5070724;28;20227;-71
2023/04/18 13:26:44;;;;;;;12.90;10.15;;;16.30;99.90;;;;;;5067864;28;20224;-71
2023/04/18 13:29:33;;;;;;;15.02;9.65;;;16.10;99.90;;;;;;5070793;28;20670;-71
2023/04/18 13:32:22;;;;;;;10.88;9.13;;;16.10;99.90;;;;;;5075614;28;20220;-71
2023/04/18 13:35:11;;;;;;;13.95;9.73;;;16.10;99.90;;;;;;5070088;28;20287;-72
2023/04/18 13:38:02;;;;;;;15.90;9.32;;;16.20;99.90;;;;;;5065397;28;21077;-70
2023/04/18 13:40:51;;;;;;;13.25;8.88;;;16.10;99.90;;;;;;5067035;28;20887;-71
2023/04/18 13:43:58;;;;;;;10.63;8.65;;;16.20;99.90;;;;;;5060303;28;20705;-71
2023/04/18 13:46:47;;;;;;;12.25;8.95;;;16.30;99.90;;;;;;5061594;28;20224;-71
2023/04/18 13:49:36;;;;;;;13.30;9.43;;;16.40;99.90;;;;;;5053103;28;20755;-71
2023/04/18 13:52:26;;;;;;;12.77;8.68;;;16.20;99.90;;;;;;5060695;28;20220;-71
2023/04/18 13:55:16;;;;;;;13.30;9.20;;;16.10;99.90;;;;;;5064015;28;20244;-72
2023/04/18 13:58:05;;;;;;;14.85;8.90;;;16.10;99.90;;;;;;5057402;28;20590;-71
2023/04/18 14:00:57;;;;;;;12.25;8.70;;;16.10;99.90;;;;;;5062010;28;20244;-71
2023/04/18 14:03:46;;;;;;;12.70;9.30;;;16.00;99.90;;;;;;5062726;28;20224;-71
2023/04/18 14:06:35;;;;;;;12.95;8.10;;;16.10;99.90;;;;;;5062668;28;20216;-71
2023/04/18 14:09:24;;;;;;;12.52;8.23;;;15.90;99.90;;;;;;5060993;28;20227;-71
2023/04/18 14:12:14;;;;;;;10.77;8.05;;;15.90;99.90;;;;;;5072265;28;20571;-71
2023/04/18 14:15:05;;;;;;;11.77;7.97;;;15.90;99.90;;;;;;5053823;28;20755;-71
2023/04/18 14:17:55;;;;;;;12.93;7.72;;;15.90;99.90;;;;;;5067471;28;20323;-70
2023/04/18 14:20:44;;;;;;;11.43;7.43;;;16.00;99.90;;;;;;5061601;28;20278;-71
2023/04/18 14:23:34;;;;;;;13.25;7.43;;;16.00;99.90;;;;;;5070663;28;20327;-72
2023/04/18 14:26:23;;;;;;;11.75;7.13;;;16.10;99.90;;;;;;5056567;28;20219;-71
2023/04/18 14:29:14;;;;;;;12.13;7.50;;;16.10;99.90;;;;;;5053303;28;20217;-70
2023/04/18 14:32:03;;;;;;;7.70;6.97;;;16.30;99.90;;;;;;5055149;28;20239;-68
2023/04/18 14:34:52;;;;;;;9.45;6.65;;;16.40;99.90;;;;;;5055947;28;20266;-69